createdAt,value
2018-09-02T00:01:39.620Z,4.83
2018-09-02T00:04:08.753Z,4.80
2018-09-02T00:06:37.417Z,4.90
2018-09-02T00:09:06.777Z,4.33
2018-09-02T00:11:35.437Z,4.90
2018-09-02T00:14:04.168Z,5.00
2018-09-02T00:16:32.649Z,4.70
2018-09-02T00:19:01.461Z,4.70
2018-09-02T00:21:29.971Z,4.53
2018-09-02T00:23:58.691Z,4.47
2018-09-02T00:26:27.418Z,3.97
2018-09-02T00:28:56.007Z,3.80
2018-09-02T00:31:24.835Z,4.07
2018-09-02T00:33:53.518Z,4.23
2018-09-02T00:36:22.154Z,3.73
2018-09-02T00:38:50.717Z,3.97
2018-09-02T00:41:19.374Z,3.97
2018-09-02T00:43:48.705Z,4.10
2018-09-02T00:46:17.257Z,3.93
2018-09-02T00:48:45.812Z,3.57
2018-09-02T00:51:14.396Z,4.23
2018-09-02T00:53:43.060Z,3.83
2018-09-02T00:56:11.669Z,3.53
2018-09-02T00:58:40.837Z,3.77
2018-09-02T01:01:09.374Z,3.80
2018-09-02T01:03:38.164Z,3.53
2018-09-02T01:06:06.682Z,3.60
2018-09-02T01:08:35.558Z,3.40
2018-09-02T01:11:04.153Z,3.57
2018-09-02T01:13:32.878Z,3.63
2018-09-02T01:16:02.403Z,3.50
2018-09-02T01:18:31.081Z,3.73
2018-09-02T01:20:59.745Z,3.57
2018-09-02T01:23:28.229Z,4.10
2018-09-02T01:25:56.777Z,4.10
2018-09-02T01:28:25.288Z,4.00
2018-09-02T01:30:53.844Z,4.07
2018-09-02T01:33:22.349Z,4.00
2018-09-02T01:35:50.911Z,4.40
2018-09-02T01:38:20.149Z,4.17
2018-09-02T01:40:48.794Z,4.10
2018-09-02T01:43:18.204Z,4.00
2018-09-02T01:45:47.205Z,3.93
2018-09-02T01:48:15.742Z,3.40
2018-09-02T01:50:44.428Z,4.10
2018-09-02T01:53:13.052Z,4.13
2018-09-02T01:55:41.756Z,4.10
2018-09-02T01:58:10.528Z,3.90
2018-09-02T02:00:39.659Z,4.10
2018-09-02T02:03:08.472Z,4.03
2018-09-02T02:05:37.842Z,4.23
2018-09-02T02:08:06.685Z,4.07
2018-09-02T02:10:36.247Z,3.83
2018-09-02T02:13:04.893Z,4.90
2018-09-02T02:15:33.860Z,4.17
2018-09-02T02:18:02.472Z,4.40
2018-09-02T02:20:32.073Z,4.40
2018-09-02T02:23:00.657Z,4.40
2018-09-02T02:25:29.167Z,3.83
2018-09-02T02:27:57.844Z,4.47
2018-09-02T02:30:26.346Z,4.93
2018-09-02T02:32:55.358Z,4.87
2018-09-02T02:35:24.017Z,4.50
2018-09-02T02:37:52.577Z,4.93
2018-09-02T02:40:21.537Z,4.37
2018-09-02T02:42:50.896Z,4.83
2018-09-02T02:45:20.486Z,4.90
2018-09-02T02:47:49.757Z,4.63
2018-09-02T02:50:18.579Z,4.67
2018-09-02T02:52:52.547Z,5.00
2018-09-02T02:55:21.240Z,5.17
2018-09-02T02:57:50.233Z,5.27
2018-09-02T03:00:19.464Z,4.90
2018-09-02T03:02:48.583Z,4.80
2018-09-02T03:05:17.257Z,5.53
2018-09-02T03:07:45.860Z,4.97
2018-09-02T03:10:14.479Z,5.40
2018-09-02T03:12:43.685Z,4.77
2018-09-02T03:15:12.428Z,5.60
2018-09-02T03:17:40.942Z,5.30
2018-09-02T03:20:10.599Z,5.67
2018-09-02T03:22:39.994Z,5.07
2018-09-02T03:25:08.906Z,4.87
2018-09-02T03:27:38.131Z,5.40
2018-09-02T03:30:06.817Z,5.20
2018-09-02T03:32:35.520Z,5.43
2018-09-02T03:35:04.123Z,5.27
2018-09-02T03:37:32.862Z,5.47
2018-09-02T03:40:01.614Z,4.97
2018-09-02T03:42:30.229Z,4.80
2018-09-02T03:44:58.844Z,5.23
2018-09-02T03:47:27.369Z,4.90
2018-09-02T03:49:55.969Z,5.20
2018-09-02T03:52:24.851Z,5.03
2018-09-02T03:54:53.900Z,5.37
2018-09-02T03:57:23.200Z,5.30
2018-09-02T03:59:51.830Z,5.27
2018-09-02T04:02:20.416Z,5.50
2018-09-02T04:04:48.955Z,5.70
2018-09-02T04:07:17.513Z,5.77
2018-09-02T04:09:46.160Z,5.80
2018-09-02T04:12:14.792Z,5.40
2018-09-02T04:14:43.432Z,6.03
2018-09-02T04:17:11.966Z,5.70
2018-09-02T04:19:41.016Z,6.47
2018-09-02T04:22:09.597Z,7.03
2018-09-02T04:24:38.283Z,7.47
2018-09-02T04:27:09.022Z,7.57
2018-09-02T04:29:37.559Z,7.57
2018-09-02T04:32:07.080Z,7.83
2018-09-02T04:34:35.734Z,7.97
2018-09-02T04:37:05.232Z,8.57
2018-09-02T04:39:34.310Z,8.53
2018-09-02T04:42:02.943Z,8.07
2018-09-02T04:44:31.560Z,8.83
2018-09-02T04:47:00.126Z,8.40
2018-09-02T04:49:28.823Z,8.27
2018-09-02T04:51:57.444Z,8.50
2018-09-02T04:54:26.091Z,8.10
2018-09-02T04:56:54.853Z,8.07
2018-09-02T04:59:23.500Z,7.47
2018-09-02T05:01:52.107Z,7.20
2018-09-02T05:04:20.879Z,8.10
2018-09-02T05:06:49.534Z,8.20
2018-09-02T05:09:18.244Z,8.43
2018-09-02T05:11:46.885Z,7.20
2018-09-02T05:14:15.744Z,7.77
2018-09-02T05:16:44.355Z,7.47
2018-09-02T05:19:12.942Z,8.07
2018-09-02T05:21:41.559Z,8.07
2018-09-02T05:24:10.148Z,8.10
2018-09-02T05:26:38.868Z,7.77
2018-09-02T05:29:07.582Z,7.97
2018-09-02T05:31:36.709Z,8.03
2018-09-02T05:34:05.390Z,8.00
2018-09-02T05:36:34.051Z,8.57
2018-09-02T05:39:02.618Z,8.20
2018-09-02T05:41:31.143Z,8.27
2018-09-02T05:43:59.890Z,8.10
2018-09-02T05:46:29.043Z,8.17
2018-09-02T05:48:57.717Z,7.93
2018-09-02T05:51:26.944Z,8.27
2018-09-02T05:53:55.750Z,8.97
2018-09-02T05:56:24.423Z,8.70
2018-09-02T05:58:53.702Z,9.67
2018-09-02T06:01:22.792Z,8.97
2018-09-02T06:03:51.493Z,9.40
2018-09-02T06:06:20.122Z,8.97
2018-09-02T06:08:48.782Z,9.60
2018-09-02T06:11:17.846Z,9.23
2018-09-02T06:13:46.846Z,9.67
2018-09-02T06:16:15.670Z,9.63
2018-09-02T06:18:44.205Z,10.13
2018-09-02T06:21:12.933Z,10.50
2018-09-02T06:23:41.857Z,9.97
2018-09-02T06:26:11.324Z,11.10
2018-09-02T06:28:39.870Z,10.63
2018-09-02T06:31:08.518Z,11.40
2018-09-02T06:33:37.664Z,12.47
2018-09-02T06:36:06.551Z,11.97
2018-09-02T06:38:35.728Z,12.97
2018-09-02T06:41:04.543Z,12.87
2018-09-02T06:43:33.646Z,14.33
2018-09-02T06:46:02.314Z,13.47
2018-09-02T06:48:31.172Z,14.73
2018-09-02T06:50:59.734Z,14.47
2018-09-02T06:53:28.313Z,14.20
2018-09-02T06:55:56.883Z,14.10
2018-09-02T06:58:25.693Z,15.13
2018-09-02T07:00:55.296Z,15.53
2018-09-02T07:03:24.256Z,15.13
2018-09-02T07:05:53.573Z,14.93
2018-09-02T07:08:22.715Z,14.30
2018-09-02T07:10:52.018Z,13.97
2018-09-02T07:13:20.594Z,14.47
2018-09-02T07:15:50.048Z,14.40
2018-09-02T07:18:19.128Z,13.50
2018-09-02T07:20:49.691Z,13.37
2018-09-02T07:23:18.350Z,13.53
2018-09-02T07:25:47.112Z,14.53
2018-09-02T07:28:15.692Z,13.50
2018-09-02T07:30:44.335Z,12.63
2018-09-02T07:33:13.183Z,12.87
2018-09-02T07:35:41.830Z,13.03
2018-09-02T07:38:11.339Z,12.40
2018-09-02T07:40:40.520Z,12.83
2018-09-02T07:43:09.728Z,12.97
2018-09-02T07:45:38.322Z,12.73
2018-09-02T07:48:06.856Z,11.03
2018-09-02T07:50:35.637Z,12.33
2018-09-02T07:53:04.533Z,13.07
2018-09-02T07:55:33.324Z,12.37
2018-09-02T07:58:01.939Z,12.20
2018-09-02T08:00:31.641Z,13.20
2018-09-02T08:03:01.079Z,12.60
2018-09-02T08:05:30.108Z,12.27
2018-09-02T08:07:58.814Z,13.27
2018-09-02T08:10:27.785Z,12.30
2018-09-02T08:12:56.865Z,12.47
2018-09-02T08:15:25.312Z,12.67
2018-09-02T08:17:53.958Z,11.57
2018-09-02T08:20:22.544Z,12.13
2018-09-02T08:22:51.266Z,12.27
2018-09-02T08:25:19.815Z,11.97
2018-09-02T08:27:50.057Z,12.33
2018-09-02T08:30:19.256Z,13.63
2018-09-02T08:32:48.506Z,12.77
2018-09-02T08:35:17.237Z,14.33
2018-09-02T08:37:47.105Z,13.70
2018-09-02T08:40:15.755Z,14.20
2018-09-02T08:42:44.981Z,14.77
2018-09-02T08:45:13.646Z,14.57
2018-09-02T08:47:42.202Z,15.53
2018-09-02T08:50:11.131Z,14.80
2018-09-02T08:52:39.870Z,15.23
2018-09-02T08:55:09.013Z,15.10
2018-09-02T08:57:37.778Z,14.67
2018-09-02T09:00:08.286Z,15.33
2018-09-02T09:02:37.323Z,15.73
2018-09-02T09:05:06.945Z,15.30
2018-09-02T09:07:36.255Z,16.57
2018-09-02T09:10:05.111Z,16.63
2018-09-02T09:12:33.632Z,15.60
2018-09-02T09:15:02.543Z,16.33
2018-09-02T09:17:31.143Z,14.70
2018-09-02T09:19:59.933Z,15.07
2018-09-02T09:22:28.549Z,15.13
2018-09-02T09:24:57.281Z,13.93
2018-09-02T09:27:25.919Z,13.97
2018-09-02T09:29:54.604Z,12.67
2018-09-02T09:32:23.400Z,12.10
2018-09-02T09:34:52.055Z,13.00
2018-09-02T09:37:20.833Z,11.60
2018-09-02T09:39:49.415Z,11.40
2018-09-02T09:42:19.672Z,11.20
2018-09-02T09:44:48.362Z,10.33
2018-09-02T09:47:17.167Z,9.97
2018-09-02T09:49:45.906Z,9.43
2018-09-02T09:52:16.348Z,9.07
2018-09-02T09:54:45.301Z,9.37
2018-09-02T09:57:14.060Z,9.40
2018-09-02T09:59:43.010Z,8.40
2018-09-02T10:02:11.753Z,8.87
2018-09-02T10:04:40.674Z,8.37
2018-09-02T10:07:09.973Z,7.63
2018-09-02T10:09:38.552Z,7.67
2018-09-02T10:12:07.119Z,6.93
2018-09-02T10:14:35.935Z,7.30
2018-09-02T10:17:04.553Z,7.47
2018-09-02T10:19:33.815Z,7.17
2018-09-02T10:22:02.730Z,8.03
2018-09-02T10:24:31.353Z,7.43
2018-09-02T10:27:00.083Z,7.30
2018-09-02T10:29:29.620Z,7.63
2018-09-02T10:31:58.912Z,7.70
2018-09-02T10:34:28.126Z,6.87
2018-09-02T10:36:56.776Z,7.23
2018-09-02T10:39:25.484Z,7.13
2018-09-02T10:41:54.064Z,7.27
2018-09-02T10:44:22.729Z,6.83
2018-09-02T10:46:51.935Z,7.03
2018-09-02T10:49:20.585Z,7.13
2018-09-02T10:51:49.214Z,7.43
2018-09-02T10:54:17.811Z,7.30
2018-09-02T10:56:46.925Z,7.30
2018-09-02T10:59:15.627Z,7.50
2018-09-02T11:01:43.949Z,8.13
2018-09-02T11:04:12.371Z,7.10
2018-09-02T11:06:41.166Z,6.53
2018-09-02T11:09:11.110Z,6.97
2018-09-02T11:11:39.668Z,6.50
2018-09-02T11:14:09.079Z,6.20
2018-09-02T11:16:38.273Z,5.93
2018-09-02T11:19:07.123Z,5.60
2018-09-02T11:21:35.918Z,6.23
2018-09-02T11:24:04.618Z,5.73
2018-09-02T11:26:33.204Z,5.70
2018-09-02T11:29:02.478Z,5.97
2018-09-02T11:31:31.927Z,5.60
2018-09-02T11:34:00.788Z,5.10
2018-09-02T11:36:29.469Z,4.93
2018-09-02T11:38:58.172Z,4.70
2018-09-02T11:41:26.720Z,4.30
2018-09-02T11:43:55.512Z,4.33
2018-09-02T11:46:24.705Z,3.80
2018-09-02T11:48:53.877Z,4.27
2018-09-02T11:51:23.481Z,4.47
2018-09-02T11:53:53.631Z,4.00
2018-09-02T11:56:22.242Z,3.57
2018-09-02T11:58:50.843Z,3.90
2018-09-02T12:01:19.594Z,3.93
2018-09-02T12:03:49.052Z,3.83
2018-09-02T12:06:17.826Z,3.77
2018-09-02T12:08:46.359Z,3.27
2018-09-02T12:11:14.848Z,3.93
2018-09-02T12:13:43.711Z,4.10
2018-09-02T12:16:12.799Z,4.60
2018-09-02T12:18:41.898Z,4.40
2018-09-02T12:21:10.562Z,4.77
2018-09-02T12:23:39.500Z,5.00
2018-09-02T12:26:08.841Z,4.50
2018-09-02T12:28:37.523Z,4.80
2018-09-02T12:31:06.192Z,4.37
2018-09-02T12:33:35.658Z,4.63
2018-09-02T12:36:05.382Z,4.70
2018-09-02T12:38:34.131Z,4.70
2018-09-02T12:41:03.581Z,4.40
2018-09-02T12:43:32.686Z,4.93
2018-09-02T12:46:01.287Z,4.90
2018-09-02T12:48:30.016Z,4.43
2018-09-02T12:50:58.875Z,4.50
2018-09-02T12:53:27.362Z,4.77
2018-09-02T12:55:55.938Z,4.87
2018-09-02T12:58:25.013Z,5.23
2018-09-02T13:00:53.599Z,5.03
2018-09-02T13:03:22.284Z,5.50
2018-09-02T13:05:51.392Z,5.17
2018-09-02T13:08:20.471Z,4.83
2018-09-02T13:10:48.998Z,5.17
2018-09-02T13:13:17.584Z,5.20
2018-09-02T13:15:46.375Z,5.03
2018-09-02T13:18:15.767Z,5.43
2018-09-02T13:20:44.441Z,5.33
2018-09-02T13:23:12.950Z,5.10
2018-09-02T13:25:42.144Z,5.37
2018-09-02T13:28:10.592Z,5.10
2018-09-02T13:30:40.359Z,4.97
2018-09-02T13:33:09.381Z,5.10
2018-09-02T13:35:38.070Z,5.77
2018-09-02T13:38:07.649Z,5.40
2018-09-02T13:40:36.572Z,5.07
2018-09-02T13:43:05.766Z,5.50
2018-09-02T13:45:34.431Z,5.33
2018-09-02T13:48:03.897Z,5.70
2018-09-02T13:50:32.777Z,5.13
2018-09-02T13:53:02.077Z,5.50
2018-09-02T13:55:31.185Z,5.47
2018-09-02T13:57:59.974Z,5.43
2018-09-02T14:00:28.592Z,5.43
2018-09-02T14:02:57.095Z,5.37
2018-09-02T14:05:25.557Z,5.37
2018-09-02T14:07:54.407Z,5.87
2018-09-02T14:10:23.097Z,6.30
2018-09-02T14:12:51.652Z,5.37
2018-09-02T14:15:20.168Z,5.17
2018-09-02T14:17:49.272Z,6.13
2018-09-02T14:20:18.038Z,5.63
2018-09-02T14:22:47.039Z,5.47
2018-09-02T14:25:15.385Z,5.47
2018-09-02T14:27:43.737Z,5.50
2018-09-02T14:30:12.105Z,6.00
2018-09-02T14:32:40.504Z,5.90
2018-09-02T14:35:08.946Z,5.87
2018-09-02T14:37:37.356Z,5.67
2018-09-02T14:40:05.977Z,5.90
2018-09-02T14:42:34.388Z,5.83
2018-09-02T14:45:02.820Z,5.80
2018-09-02T14:47:31.186Z,6.40
2018-09-02T14:49:59.788Z,6.53
2018-09-02T14:52:28.141Z,5.93
2018-09-02T14:54:56.511Z,6.70
2018-09-02T14:57:24.902Z,6.40
2018-09-02T14:59:53.274Z,6.30
2018-09-02T15:02:21.606Z,5.60
2018-09-02T15:04:49.942Z,6.77
2018-09-02T15:07:18.274Z,6.53
2018-09-02T15:09:46.632Z,6.47
2018-09-02T15:12:15.017Z,6.13
2018-09-02T15:14:43.373Z,6.07
2018-09-02T15:17:11.756Z,6.80
2018-09-02T15:19:40.553Z,6.87
2018-09-02T15:22:09.045Z,6.43
2018-09-02T15:24:39.252Z,6.70
2018-09-02T15:27:07.791Z,6.50
2018-09-02T15:29:36.312Z,6.87
2018-09-02T15:32:04.760Z,7.00
2018-09-02T15:34:33.364Z,6.93
2018-09-02T15:37:01.725Z,7.07
2018-09-02T15:39:30.190Z,6.87
2018-09-02T15:41:58.514Z,6.63
2018-09-02T15:44:26.930Z,6.73
2018-09-02T15:46:55.504Z,6.37
2018-09-02T15:49:24.209Z,5.87
2018-09-02T15:51:52.616Z,5.97
2018-09-02T15:54:21.593Z,6.33
2018-09-02T15:56:50.020Z,6.13
2018-09-02T15:59:18.432Z,5.97
2018-09-02T16:01:46.875Z,6.57
2018-09-02T16:04:15.223Z,6.10
2018-09-02T16:06:43.878Z,6.27
2018-09-02T16:09:12.960Z,5.83
2018-09-02T16:11:41.347Z,5.90
2018-09-02T16:14:10.260Z,6.37
2018-09-02T16:16:38.940Z,6.50
2018-09-02T16:19:07.438Z,6.40
2018-09-02T16:21:35.834Z,6.20
2018-09-02T16:24:04.256Z,6.50
2018-09-02T16:26:32.701Z,6.30
2018-09-02T16:29:01.125Z,6.10
2018-09-02T16:31:29.464Z,6.33
2018-09-02T16:33:57.986Z,6.83
2018-09-02T16:36:26.371Z,7.13
2018-09-02T16:38:54.745Z,6.47
2018-09-02T16:41:23.136Z,6.83
2018-09-02T16:43:51.520Z,6.97
2018-09-02T16:46:20.013Z,6.97
2018-09-02T16:48:48.439Z,6.50
2018-09-02T16:51:16.837Z,6.77
2018-09-02T16:53:45.303Z,6.60
2018-09-02T16:56:13.711Z,5.97
2018-09-02T16:58:42.281Z,6.67
2018-09-02T17:01:10.741Z,6.50
2018-09-02T17:03:42.403Z,6.13
2018-09-02T17:06:10.913Z,6.73
2018-09-02T17:08:39.860Z,6.77
2018-09-02T17:11:08.514Z,6.53
2018-09-02T17:13:37.181Z,6.47
2018-09-02T17:16:05.889Z,6.67
2018-09-02T17:18:34.523Z,6.57
2018-09-02T17:21:03.134Z,7.00
2018-09-02T17:23:31.647Z,6.67
2018-09-02T17:26:00.155Z,7.00
2018-09-02T17:28:28.692Z,7.20
2018-09-02T17:30:57.166Z,7.80
2018-09-02T17:33:25.656Z,7.17
2018-09-02T17:35:54.257Z,7.30
2018-09-02T17:38:22.787Z,6.80
2018-09-02T17:40:51.365Z,7.53
2018-09-02T17:43:20.538Z,8.07
2018-09-02T17:45:50.141Z,7.53
2018-09-02T17:48:19.830Z,7.67
2018-09-02T17:50:49.079Z,7.77
2018-09-02T17:53:17.635Z,7.17
2018-09-02T17:55:46.276Z,7.47
2018-09-02T17:58:15.142Z,7.80
2018-09-02T18:00:46.080Z,7.70
2018-09-02T18:03:14.742Z,7.77
2018-09-02T18:05:43.173Z,7.90
2018-09-02T18:08:11.766Z,7.53
2018-09-02T18:10:40.329Z,7.63
2018-09-02T18:13:08.854Z,7.10
2018-09-02T18:15:37.475Z,7.10
2018-09-02T18:18:06.196Z,7.90
2018-09-02T18:20:34.755Z,7.30
2018-09-02T18:23:03.168Z,7.63
2018-09-02T18:25:31.701Z,7.87
2018-09-02T18:28:02.555Z,7.83
2018-09-02T18:30:31.075Z,7.77
2018-09-02T18:32:59.532Z,7.90
2018-09-02T18:35:27.992Z,8.00
2018-09-02T18:37:56.416Z,7.57
2018-09-02T18:40:24.901Z,7.97
2018-09-02T18:42:54.228Z,8.20
2018-09-02T18:45:22.948Z,8.03
2018-09-02T18:47:51.271Z,7.40
2018-09-02T18:50:19.914Z,8.60
2018-09-02T18:52:48.607Z,8.10
2018-09-02T18:55:17.125Z,8.23
2018-09-02T18:57:45.557Z,8.30
2018-09-02T19:00:14.020Z,8.27
2018-09-02T19:02:43.416Z,8.73
2018-09-02T19:05:11.828Z,8.13
2018-09-02T19:07:40.305Z,8.10
2018-09-02T19:10:08.825Z,7.73
2018-09-02T19:12:37.320Z,7.97
2018-09-02T19:15:06.318Z,9.03
2018-09-02T19:17:34.925Z,8.63
2018-09-02T19:20:03.438Z,8.43
2018-09-02T19:22:31.934Z,8.03
2018-09-02T19:25:00.570Z,7.37
2018-09-02T19:27:29.029Z,7.80
2018-09-02T19:29:57.789Z,8.23
2018-09-02T19:32:26.351Z,8.57
2018-09-02T19:34:54.951Z,7.60
2018-09-02T19:37:23.430Z,9.33
2018-09-02T19:39:51.865Z,8.67
2018-09-02T19:42:20.391Z,8.43
2018-09-02T19:44:49.024Z,8.30
2018-09-02T19:47:17.876Z,7.90
2018-09-02T19:49:47.556Z,7.97
2018-09-02T19:52:16.111Z,9.27
2018-09-02T19:54:44.689Z,8.70
2018-09-02T19:57:13.089Z,8.23
2018-09-02T19:59:41.836Z,8.77
2018-09-02T20:02:10.635Z,9.57
2018-09-02T20:04:39.187Z,10.07
2018-09-02T20:07:07.868Z,9.10
2018-09-02T20:09:36.457Z,8.10
2018-09-02T20:12:05.107Z,8.53
2018-09-02T20:14:33.653Z,7.57
2018-09-02T20:17:03.222Z,7.77
2018-09-02T20:19:32.000Z,8.53
2018-09-02T20:22:00.897Z,8.17
2018-09-02T20:24:29.616Z,9.17
2018-09-02T20:26:58.383Z,8.27
2018-09-02T20:29:26.978Z,8.20
2018-09-02T20:31:56.440Z,9.40
2018-09-02T20:34:24.978Z,8.53
2018-09-02T20:36:53.671Z,8.40
2018-09-02T20:39:22.294Z,8.20
2018-09-02T20:41:51.580Z,8.43
2018-09-02T20:44:20.316Z,9.13
2018-09-02T20:46:49.051Z,8.93
2018-09-02T20:49:17.754Z,8.60
2018-09-02T20:51:46.310Z,8.70
2018-09-02T20:54:15.114Z,9.10
2018-09-02T20:56:43.772Z,8.30
2018-09-02T20:59:12.532Z,8.57
2018-09-02T21:01:41.057Z,8.23
2018-09-02T21:04:09.604Z,8.57
2018-09-02T21:06:38.227Z,9.33
2018-09-02T21:09:10.630Z,8.30
2018-09-02T21:11:39.160Z,8.47
2018-09-02T21:14:07.955Z,7.87
2018-09-02T21:16:36.937Z,8.10
2018-09-02T21:19:05.947Z,8.37
2018-09-02T21:21:34.722Z,8.40
2018-09-02T21:24:03.392Z,8.13
2018-09-02T21:26:31.984Z,8.53
2018-09-02T21:29:01.154Z,8.80
2018-09-02T21:31:30.015Z,8.67
2018-09-02T21:33:58.615Z,8.07
2018-09-02T21:36:27.141Z,7.97
2018-09-02T21:38:55.808Z,7.93
2018-09-02T21:41:24.476Z,8.40
2018-09-02T21:43:53.231Z,8.23
2018-09-02T21:46:21.873Z,8.40
2018-09-02T21:48:50.307Z,8.63
2018-09-02T21:51:18.917Z,8.27
2018-09-02T21:53:47.532Z,9.03
2018-09-02T21:56:16.103Z,7.43
2018-09-02T21:58:44.696Z,7.50
2018-09-02T22:01:14.143Z,8.13
2018-09-02T22:03:42.634Z,8.37
2018-09-02T22:06:11.158Z,8.33
2018-09-02T22:08:39.831Z,8.17
2018-09-02T22:11:08.366Z,8.23
2018-09-02T22:13:37.031Z,8.63
2018-09-02T22:16:05.749Z,8.27
2018-09-02T22:18:34.441Z,8.17
2018-09-02T22:21:03.155Z,7.97
2018-09-02T22:23:31.760Z,7.83
2018-09-02T22:26:00.442Z,8.50
2018-09-02T22:28:29.065Z,8.20
2018-09-02T22:30:57.700Z,8.50
2018-09-02T22:33:26.236Z,8.00
2018-09-02T22:35:54.940Z,8.20
2018-09-02T22:38:23.690Z,7.90
2018-09-02T22:40:52.705Z,8.53
2018-09-02T22:43:21.878Z,8.63
2018-09-02T22:45:50.635Z,7.73
2018-09-02T22:48:19.752Z,8.03
2018-09-02T22:50:48.460Z,8.33
2018-09-02T22:53:17.291Z,7.73
2018-09-02T22:55:46.990Z,7.90
2018-09-02T22:58:15.883Z,8.50
2018-09-02T23:00:44.660Z,8.77
2018-09-02T23:03:13.845Z,8.13
2018-09-02T23:05:42.625Z,7.83
2018-09-02T23:08:11.344Z,8.33
2018-09-02T23:10:40.278Z,8.33
2018-09-02T23:13:09.141Z,7.90
2018-09-02T23:15:37.876Z,8.40
2018-09-02T23:18:06.656Z,8.23
2018-09-02T23:20:35.677Z,8.77
2018-09-02T23:23:04.478Z,8.47
2018-09-02T23:25:34.470Z,8.73
2018-09-02T23:28:03.055Z,8.63
2018-09-02T23:30:31.860Z,8.27
2018-09-02T23:33:00.743Z,7.80
2018-09-02T23:35:29.461Z,8.70
2018-09-02T23:37:58.346Z,9.10
2018-09-02T23:40:27.271Z,8.80
2018-09-02T23:42:56.286Z,8.93
2018-09-02T23:45:25.043Z,8.70
2018-09-02T23:47:53.812Z,8.53
2018-09-02T23:50:25.635Z,9.10
2018-09-02T23:52:54.413Z,8.53
2018-09-02T23:55:23.213Z,8.77
2018-09-02T23:57:52.007Z,9.23
